Time;durP1;ratioP1;P1;durP2;ratioP2;P2;SDS_P1;SDS_P2;PMS_P1;PMS_P2;Temp;Humidity;BMP_temperature;BMP_pressure;BME280_temperature;BME280_humidity;BME280_pressure;Samples;Min_cycle;Max_cycle;Signal;HPM_P1;HPM_P2
2020/12/17 00:01:53;;;;;;;37.80;21.20;;;7.60;95.20;;;;;;5038108;28;20119;-68
2020/12/17 00:04:19;;;;;;;36.35;20.27;;;7.50;95.30;;;;;;5039687;28;20029;-68
2020/12/17 00:06:44;;;;;;;34.50;20.85;;;7.50;95.40;;;;;;5038129;28;20095;-68
2020/12/17 00:09:10;;;;;;;36.22;21.67;;;7.30;95.50;;;;;;5039806;28;20131;-67
2020/12/17 00:11:36;;;;;;;36.28;21.38;;;7.30;95.50;;;;;;5039853;28;20043;-67
2020/12/17 00:14:01;;;;;;;37.58;21.70;;;7.20;95.60;;;;;;5040343;28;20029;-67
2020/12/17 00:16:27;;;;;;;36.28;21.38;;;7.20;95.80;;;;;;5040265;28;20037;-68
2020/12/17 00:18:53;;;;;;;38.65;21.67;;;7.10;95.90;;;;;;5038833;28;20029;-67
2020/12/17 00:21:20;;;;;;;38.67;22.63;;;7.20;95.70;;;;;;5039432;28;20028;-68
2020/12/17 00:23:46;;;;;;;42.15;22.85;;;7.30;95.60;;;;;;5039879;28;20017;-68
2020/12/17 00:26:12;;;;;;;38.25;21.83;;;7.30;95.40;;;;;;5038728;28;20362;-67
2020/12/17 00:28:38;;;;;;;34.75;20.52;;;7.30;95.30;;;;;;5039711;28;20032;-68
2020/12/17 00:31:03;;;;;;;39.28;20.08;;;7.10;95.50;;;;;;5039618;28;20033;-67
2020/12/17 00:33:29;;;;;;;35.95;21.60;;;7.10;95.70;;;;;;5039624;28;20025;-68
2020/12/17 00:35:55;;;;;;;39.13;21.23;;;7.00;95.80;;;;;;5039713;28;20074;-67
2020/12/17 00:38:21;;;;;;;38.35;22.48;;;7.00;95.70;;;;;;5038450;28;20037;-68
2020/12/17 00:40:46;;;;;;;42.38;22.70;;;7.00;95.80;;;;;;5038730;28;21255;-68
2020/12/17 00:43:12;;;;;;;36.00;20.75;;;6.90;95.90;;;;;;5043864;28;20032;-66
2020/12/17 00:45:37;;;;;;;40.40;21.83;;;6.90;95.90;;;;;;5051678;28;20384;-68
2020/12/17 00:48:03;;;;;;;44.15;22.05;;;6.80;96.10;;;;;;5037961;28;20033;-68
2020/12/17 00:50:29;;;;;;;42.03;21.55;;;6.80;96.10;;;;;;5042802;28;20067;-68
2020/12/17 00:52:54;;;;;;;40.40;22.02;;;6.80;96.10;;;;;;5049511;28;20028;-67
2020/12/17 00:55:20;;;;;;;49.17;23.38;;;6.70;96.00;;;;;;5050612;28;20033;-68
2020/12/17 00:57:45;;;;;;;43.00;22.48;;;6.70;96.10;;;;;;5048329;28;20029;-68
2020/12/17 01:00:11;;;;;;;42.92;21.33;;;6.60;96.20;;;;;;5048339;28;20115;-67
2020/12/17 01:02:36;;;;;;;38.22;22.83;;;6.60;96.20;;;;;;5050343;28;20025;-68
2020/12/17 01:05:03;;;;;;;43.40;22.85;;;6.60;96.30;;;;;;5034298;28;20121;-67
2020/12/17 01:07:29;;;;;;;46.17;23.38;;;6.60;96.20;;;;;;5045863;28;20023;-67
2020/12/17 01:09:55;;;;;;;44.13;23.75;;;6.60;96.40;;;;;;5033945;28;20112;-67
2020/12/17 01:12:21;;;;;;;44.42;23.15;;;6.60;96.30;;;;;;5053685;28;20137;-68
2020/12/17 01:14:46;;;;;;;46.83;23.83;;;6.60;96.20;;;;;;5031340;28;20025;-68
2020/12/17 01:17:14;;;;;;;42.30;22.88;;;6.60;96.30;;;;;;5050668;28;20053;-68
2020/12/17 01:19:40;;;;;;;42.05;22.80;;;6.60;96.20;;;;;;5047645;28;20116;-68
2020/12/17 01:22:05;;;;;;;46.47;24.25;;;6.70;96.20;;;;;;5050120;28;20108;-68
2020/12/17 01:24:31;;;;;;;41.38;22.33;;;6.70;96.30;;;;;;5051336;28;20071;-68
2020/12/17 01:26:57;;;;;;;40.63;22.38;;;6.60;96.20;;;;;;5046776;28;20032;-68
2020/12/17 01:29:23;;;;;;;45.63;23.30;;;6.70;96.10;;;;;;5045024;28;20060;-67
2020/12/17 01:31:49;;;;;;;39.88;21.48;;;6.70;96.10;;;;;;5046510;28;20105;-67
2020/12/17 01:34:15;;;;;;;36.80;21.00;;;6.80;95.90;;;;;;5051302;28;20108;-68
2020/12/17 01:36:40;;;;;;;35.80;20.70;;;6.80;96.00;;;;;;5050344;28;20485;-68
2020/12/17 01:39:06;;;;;;;37.15;21.00;;;6.70;96.10;;;;;;5033215;28;20032;-67
2020/12/17 01:41:32;;;;;;;36.50;20.17;;;6.70;96.10;;;;;;5064221;28;20029;-68
2020/12/17 01:44:02;;;;;;;37.88;21.70;;;6.70;96.00;;;;;;5049705;28;20651;-68
2020/12/17 01:46:29;;;;;;;37.80;21.67;;;6.80;96.00;;;;;;5049613;28;20025;-66
2020/12/17 01:48:55;;;;;;;38.55;20.95;;;6.70;96.00;;;;;;5049361;28;20025;-68
2020/12/17 01:51:21;;;;;;;38.13;21.42;;;6.70;96.10;;;;;;5050487;28;20073;-68
2020/12/17 01:53:46;;;;;;;36.50;20.33;;;6.80;96.10;;;;;;5050980;28;20061;-67
2020/12/17 01:56:26;;;;;;;38.75;20.73;;;6.70;96.00;;;;;;5045029;28;20031;-68
2020/12/17 01:59:06;;;;;;;36.92;21.98;;;6.70;96.00;;;;;;5049075;28;20499;-68
2020/12/17 02:01:32;;;;;;;35.17;20.40;;;6.80;96.10;;;;;;5050401;28;20024;-67
2020/12/17 02:03:59;;;;;;;39.17;21.05;;;6.90;95.90;;;;;;5062049;28;20032;-67
2020/12/17 02:06:25;;;;;;;35.15;20.67;;;6.80;95.70;;;;;;5048155;28;20044;-68
2020/12/17 02:08:51;;;;;;;35.03;20.90;;;6.90;95.70;;;;;;5035409;28;20025;-68
2020/12/17 02:11:18;;;;;;;35.40;20.60;;;7.00;95.40;;;;;;5097605;22;20164;-68
2020/12/17 02:13:45;;;;;;;31.77;19.80;;;7.00;95.40;;;;;;5084846;28;20032;-71
2020/12/17 02:16:11;;;;;;;34.45;20.77;;;6.90;95.50;;;;;;5083217;28;20016;-68
2020/12/17 02:18:37;;;;;;;39.15;21.23;;;7.00;95.60;;;;;;5075936;28;20024;-69
2020/12/17 02:21:02;;;;;;;31.75;20.70;;;7.00;95.60;;;;;;5066341;28;20040;-70
2020/12/17 02:23:28;;;;;;;31.83;20.13;;;7.00;95.30;;;;;;5085731;28;20080;-68
2020/12/17 02:25:54;;;;;;;35.30;19.85;;;7.00;95.30;;;;;;5086777;28;20081;-68
2020/12/17 02:28:21;;;;;;;33.22;19.45;;;7.10;95.20;;;;;;5062852;28;20351;-70
2020/12/17 02:30:47;;;;;;;32.55;20.23;;;7.10;95.20;;;;;;5084392;28;20457;-68
2020/12/17 02:33:13;;;;;;;32.25;19.40;;;7.10;95.00;;;;;;5084858;28;20024;-68
2020/12/17 02:35:39;;;;;;;34.83;19.55;;;7.10;95.00;;;;;;5086096;28;20031;-68
2020/12/17 02:38:05;;;;;;;30.95;18.90;;;7.10;94.90;;;;;;5083486;28;20110;-69
2020/12/17 02:40:32;;;;;;;34.00;19.38;;;7.10;94.80;;;;;;5085726;28;20051;-69
2020/12/17 02:42:58;;;;;;;34.53;18.95;;;7.10;94.90;;;;;;5075888;28;20031;-69
2020/12/17 02:45:24;;;;;;;31.30;19.70;;;7.10;95.00;;;;;;5073416;28;20020;-69
2020/12/17 02:47:49;;;;;;;32.15;19.67;;;7.10;95.00;;;;;;5083759;28;20509;-69
2020/12/17 02:50:15;;;;;;;31.77;19.80;;;7.20;95.00;;;;;;5082953;28;20047;-70
2020/12/17 02:52:41;;;;;;;32.97;19.88;;;7.10;94.90;;;;;;5080837;28;20086;-72
2020/12/17 02:55:08;;;;;;;31.08;19.45;;;7.20;94.80;;;;;;5079380;28;20281;-69
2020/12/17 02:57:33;;;;;;;30.05;18.63;;;7.20;94.80;;;;;;5082500;28;20024;-70
2020/12/17 02:59:59;;;;;;;31.60;19.75;;;7.20;94.80;;;;;;5067857;28;20043;-69
2020/12/17 03:02:25;;;;;;;31.30;18.35;;;7.30;94.60;;;;;;5085222;28;20420;-68
2020/12/17 03:04:51;;;;;;;30.67;18.23;;;7.20;94.60;;;;;;5086168;28;20390;-69
2020/12/17 03:07:16;;;;;;;27.88;17.38;;;7.20;94.60;;;;;;5082991;28;20094;-69
2020/12/17 03:09:42;;;;;;;33.55;18.55;;;7.20;94.60;;;;;;5067831;28;20075;-69
2020/12/17 03:12:07;;;;;;;33.35;19.33;;;7.20;94.80;;;;;;5078234;28;20424;-68
2020/12/17 03:14:33;;;;;;;29.00;18.30;;;7.20;94.90;;;;;;5072660;28;20113;-68
2020/12/17 03:16:59;;;;;;;29.38;17.88;;;7.20;94.80;;;;;;5070845;28;20020;-68
2020/12/17 03:19:24;;;;;;;33.92;19.80;;;7.20;94.80;;;;;;5077397;28;20095;-71
2020/12/17 03:21:51;;;;;;;32.13;19.48;;;7.20;94.50;;;;;;5083482;28;20126;-71
2020/12/17 03:24:17;;;;;;;31.40;18.20;;;7.20;94.50;;;;;;5085427;28;20111;-69
2020/12/17 03:26:42;;;;;;;33.42;19.02;;;7.20;94.40;;;;;;5073063;28;20540;-68
2020/12/17 03:29:08;;;;;;;32.13;19.45;;;7.20;94.60;;;;;;5083344;28;20032;-68
2020/12/17 03:31:33;;;;;;;32.05;19.65;;;7.20;94.50;;;;;;5080666;28;20043;-68
2020/12/17 03:33:59;;;;;;;30.10;17.95;;;7.20;94.70;;;;;;5086616;28;20110;-69
2020/12/17 03:36:25;;;;;;;35.67;19.55;;;7.20;94.60;;;;;;5086819;28;20202;-70
2020/12/17 03:38:50;;;;;;;30.83;18.08;;;7.10;94.70;;;;;;5089092;28;20136;-69
2020/12/17 03:41:16;;;;;;;31.67;19.48;;;7.20;94.60;;;;;;5083257;28;20024;-69
2020/12/17 03:43:42;;;;;;;30.38;17.27;;;7.10;94.80;;;;;;5088579;28;20046;-68
2020/12/17 03:46:07;;;;;;;32.35;18.35;;;7.10;94.80;;;;;;5088378;28;20464;-69
2020/12/17 03:48:33;;;;;;;31.75;18.88;;;7.10;94.80;;;;;;5074304;28;20104;-68
2020/12/17 03:50:59;;;;;;;34.25;18.80;;;7.10;94.70;;;;;;5089861;28;20046;-69
2020/12/17 03:53:24;;;;;;;32.03;19.15;;;7.10;94.60;;;;;;5079181;28;20020;-72
2020/12/17 03:55:50;;;;;;;30.05;18.50;;;7.10;94.70;;;;;;5087135;28;20186;-70
2020/12/17 03:58:15;;;;;;;30.45;18.17;;;7.20;94.60;;;;;;5071307;28;20103;-70
2020/12/17 04:00:41;;;;;;;29.75;18.17;;;7.20;94.70;;;;;;5087890;28;20028;-69
2020/12/17 04:03:06;;;;;;;28.02;18.55;;;7.10;94.80;;;;;;5088018;28;20032;-69
2020/12/17 04:05:32;;;;;;;27.15;17.63;;;7.10;94.70;;;;;;5085979;28;20076;-68
2020/12/17 04:07:58;;;;;;;32.88;18.95;;;7.10;94.70;;;;;;5078573;28;20032;-68
2020/12/17 04:10:23;;;;;;;28.83;18.55;;;7.10;94.70;;;;;;5088703;28;20032;-70
2020/12/17 04:12:49;;;;;;;29.02;17.08;;;7.20;94.50;;;;;;5086205;28;20044;-69
2020/12/17 04:15:14;;;;;;;28.85;19.05;;;7.20;94.70;;;;;;5089036;28;20119;-68
2020/12/17 04:17:40;;;;;;;30.92;19.23;;;7.20;94.50;;;;;;5076891;28;20055;-69
2020/12/17 04:20:05;;;;;;;28.42;18.10;;;7.20;94.60;;;;;;5083384;28;20116;-69
2020/12/17 04:22:32;;;;;;;29.33;18.52;;;7.20;94.70;;;;;;5086511;28;20161;-67
2020/12/17 04:24:57;;;;;;;29.48;18.40;;;7.10;94.70;;;;;;5088448;28;20035;-69
2020/12/17 04:27:23;;;;;;;27.67;17.58;;;7.20;94.60;;;;;;5079614;28;20020;-69
2020/12/17 04:29:49;;;;;;;28.70;17.52;;;7.10;94.70;;;;;;5082023;28;20107;-68
2020/12/17 04:32:15;;;;;;;28.77;17.88;;;7.10;94.80;;;;;;5087056;28;20099;-71
2020/12/17 04:34:40;;;;;;;31.83;18.92;;;7.10;95.00;;;;;;5088482;28;20028;-69
2020/12/17 04:37:06;;;;;;;34.50;19.17;;;7.00;94.90;;;;;;5085504;28;20035;-68
2020/12/17 04:39:32;;;;;;;31.00;19.02;;;7.00;95.20;;;;;;5080912;28;20153;-68
2020/12/17 04:41:58;;;;;;;32.00;18.80;;;7.00;95.20;;;;;;5082899;28;20245;-69
2020/12/17 04:44:26;;;;;;;30.45;19.33;;;7.00;95.00;;;;;;5086703;28;20468;-69
2020/12/17 04:47:03;;;;;;;34.53;19.08;;;7.00;95.20;;;;;;5087275;28;20384;-68
2020/12/17 04:49:46;;;;;;;29.77;18.35;;;7.00;95.00;;;;;;5088501;28;20464;-68
2020/12/17 04:52:13;;;;;;;28.10;17.70;;;7.10;94.90;;;;;;5086112;28;20039;-70
2020/12/17 04:54:40;;;;;;;34.40;18.67;;;7.10;95.00;;;;;;5087660;28;20073;-68
2020/12/17 04:57:12;;;;;;;29.75;17.98;;;7.00;95.10;;;;;;5066242;28;20396;-68
2020/12/17 04:59:46;;;;;;;29.67;18.20;;;7.00;95.30;;;;;;5085740;28;20115;-68
2020/12/17 05:02:13;;;;;;;34.67;18.90;;;7.00;95.30;;;;;;5081201;28;20076;-68
2020/12/17 05:04:41;;;;;;;30.48;18.60;;;7.00;95.10;;;;;;5087344;28;20278;-69
2020/12/17 05:07:13;;;;;;;34.47;18.98;;;7.00;95.20;;;;;;5076391;28;20059;-69
2020/12/17 05:09:39;;;;;;;;;;;7.00;95.20;;;;;;5081391;28;20085;-69
2020/12/17 05:12:05;;;;;;;31.38;18.23;;;7.10;94.80;;;;;;5072880;28;19912;-68
2020/12/17 05:14:31;;;;;;;32.28;18.33;;;7.10;94.60;;;;;;5081728;28;20107;-68
2020/12/17 05:16:57;;;;;;;30.95;18.25;;;7.10;94.70;;;;;;5068372;28;20134;-69
2020/12/17 05:19:23;;;;;;;28.77;17.42;;;7.10;94.70;;;;;;5081246;28;20020;-69
2020/12/17 05:21:50;;;;;;;30.08;17.40;;;7.10;94.80;;;;;;5076291;28;20032;-72
2020/12/17 05:24:18;;;;;;;34.50;18.25;;;7.10;94.70;;;;;;5087681;28;20043;-69
2020/12/17 05:26:44;;;;;;;27.25;17.25;;;7.10;94.60;;;;;;5084825;28;20020;-71
2020/12/17 05:29:11;;;;;;;31.42;17.50;;;7.10;94.60;;;;;;5083440;28;20031;-70
2020/12/17 05:31:36;;;;;;;27.67;17.33;;;7.10;94.50;;;;;;5083554;28;20114;-70
2020/12/17 05:34:05;;;;;;;29.98;16.73;;;7.10;94.50;;;;;;5083292;28;20119;-69
2020/12/17 05:36:32;;;;;;;30.42;17.98;;;7.10;94.40;;;;;;5076105;28;20510;-68
2020/12/17 05:39:13;;;;;;;26.70;16.05;;;7.10;94.30;;;;;;5058422;28;20096;-69
2020/12/17 05:41:40;;;;;;;28.17;17.88;;;7.10;94.30;;;;;;5069673;28;20649;-70
2020/12/17 05:44:11;;;;;;;30.35;16.83;;;7.10;94.30;;;;;;5075128;28;20112;-69
2020/12/17 05:46:38;;;;;;;28.92;17.63;;;7.10;94.40;;;;;;5071237;28;20024;-69
2020/12/17 05:49:21;;;;;;;30.80;17.52;;;7.10;94.40;;;;;;5080759;28;20563;-69
2020/12/17 05:51:48;;;;;;;29.02;17.45;;;7.20;94.20;;;;;;5067640;28;20036;-69
2020/12/17 05:54:25;;;;;;;26.33;16.92;;;7.10;94.30;;;;;;5084294;28;20032;-70
2020/12/17 05:57:07;;;;;;;33.00;18.95;;;7.10;94.40;;;;;;5082625;28;20058;-69
2020/12/17 05:59:33;;;;;;;26.98;15.93;;;7.20;94.00;;;;;;5085864;28;20120;-69
2020/12/17 06:02:17;;;;;;;28.65;17.35;;;7.20;94.00;;;;;;5078337;28;20032;-72
2020/12/17 06:04:43;;;;;;;29.42;16.63;;;7.20;94.10;;;;;;5073606;28;20016;-68
2020/12/17 06:07:14;;;;;;;29.27;16.45;;;7.20;94.00;;;;;;5075486;28;20135;-69
2020/12/17 06:09:46;;;;;;;;;;;7.20;94.10;;;;;;5067577;28;20077;-69
2020/12/17 06:12:18;;;;;;;25.95;16.67;;;7.20;94.10;;;;;;5067235;28;20286;-69
2020/12/17 06:14:47;;;;;;;28.33;16.85;;;7.20;94.20;;;;;;5080642;28;20077;-69
2020/12/17 06:17:21;;;;;;;27.95;17.50;;;7.20;94.30;;;;;;5080595;28;20040;-70
2020/12/17 06:19:47;;;;;;;25.80;15.52;;;7.10;94.20;;;;;;5084097;28;20055;-71
2020/12/17 06:22:13;;;;;;;26.52;16.33;;;7.10;94.30;;;;;;5076017;28;20449;-69
2020/12/17 06:24:42;;;;;;;27.73;16.75;;;7.10;94.40;;;;;;5078385;28;20444;-69
2020/12/17 06:27:14;;;;;;;24.00;15.98;;;7.20;94.30;;;;;;5057367;28;20028;-68
2020/12/17 06:29:49;;;;;;;28.73;17.73;;;7.10;94.30;;;;;;5057467;28;20062;-69
2020/12/17 06:32:19;;;;;;;28.45;16.48;;;7.10;94.20;;;;;;5080899;28;20045;-68
2020/12/17 06:34:49;;;;;;;26.45;16.55;;;7.10;94.20;;;;;;5065526;28;20107;-69
2020/12/17 06:37:16;;;;;;;27.13;16.33;;;7.20;94.10;;;;;;5085037;28;20084;-69
2020/12/17 06:39:48;;;;;;;26.88;16.17;;;7.20;94.20;;;;;;5085791;28;20506;-69
2020/12/17 06:42:38;;;;;;;26.50;17.25;;;7.20;94.10;;;;;;5072823;28;20050;-70
2020/12/17 06:45:23;;;;;;;26.70;17.75;;;7.20;94.10;;;;;;5066777;28;20028;-69
2020/12/17 06:47:49;;;;;;;30.98;16.90;;;7.20;94.10;;;;;;5070757;28;20480;-69
2020/12/17 06:50:37;;;;;;;27.05;16.27;;;7.10;94.30;;;;;;5080385;28;20032;-70
2020/12/17 06:53:07;;;;;;;25.90;15.50;;;7.20;94.20;;;;;;5076106;28;20473;-69
2020/12/17 06:55:43;;;;;;;26.23;16.58;;;7.10;94.20;;;;;;5067254;28;20032;-68
2020/12/17 06:58:22;;;;;;;29.33;16.65;;;7.10;94.10;;;;;;5068136;28;20029;-69
2020/12/17 07:00:49;;;;;;;27.85;15.60;;;7.20;94.00;;;;;;5075379;28;20062;-71
2020/12/17 07:03:41;;;;;;;25.83;15.57;;;7.20;94.10;;;;;;5069930;28;20052;-69
2020/12/17 07:06:21;;;;;;;27.05;15.82;;;7.30;93.80;;;;;;5078516;28;20024;-71
2020/12/17 07:08:49;;;;;;;25.45;16.10;;;7.30;93.60;;;;;;5072514;28;20051;-68
2020/12/17 07:11:36;;;;;;;24.85;15.95;;;7.30;93.90;;;;;;5073536;28;20044;-69
2020/12/17 07:14:09;;;;;;;23.83;15.05;;;7.30;93.80;;;;;;5079380;28;20031;-68
2020/12/17 07:16:37;;;;;;;29.33;15.73;;;7.30;93.50;;;;;;5077968;28;20024;-72
2020/12/17 07:19:24;;;;;;;25.52;15.43;;;7.30;93.60;;;;;;5074774;28;20019;-69
2020/12/17 07:22:14;;;;;;;24.67;14.60;;;7.30;93.50;;;;;;5064888;28;20480;-71
2020/12/17 07:24:45;;;;;;;24.52;15.10;;;7.30;93.60;;;;;;5057989;28;20044;-69
2020/12/17 07:27:12;;;;;;;25.75;14.93;;;7.30;93.40;;;;;;5063974;28;20046;-70
2020/12/17 07:29:48;;;;;;;24.70;14.48;;;7.30;93.60;;;;;;5063513;28;20109;-68
2020/12/17 07:32:23;;;;;;;23.77;15.15;;;7.40;93.70;;;;;;5058620;28;20025;-69
2020/12/17 07:34:49;;;;;;;21.52;14.25;;;7.40;93.60;;;;;;5068134;28;20411;-68
2020/12/17 07:37:33;;;;;;;25.55;14.32;;;7.30;93.70;;;;;;5062535;28;20029;-71
2020/12/17 07:40:02;;;;;;;21.73;13.90;;;7.30;93.90;;;;;;5067481;28;20151;-70
2020/12/17 07:42:28;;;;;;;23.08;14.95;;;7.30;94.30;;;;;;5044575;28;20402;-70
2020/12/17 07:44:53;;;;;;;26.05;16.15;;;7.40;93.80;;;;;;5063732;28;20134;-70
2020/12/17 07:47:20;;;;;;;25.83;15.55;;;7.30;94.00;;;;;;5057699;28;20613;-68
2020/12/17 07:49:45;;;;;;;23.48;15.00;;;7.40;94.00;;;;;;5065664;28;20099;-70
2020/12/17 07:52:37;;;;;;;27.85;16.48;;;7.40;94.10;;;;;;5062088;28;20055;-69
2020/12/17 07:55:03;;;;;;;28.80;15.57;;;7.40;94.10;;;;;;5065660;28;20102;-69
2020/12/17 07:57:29;;;;;;;28.02;15.45;;;7.40;94.10;;;;;;5045083;28;20108;-69
2020/12/17 07:59:54;;;;;;;23.30;15.27;;;7.40;94.00;;;;;;5068247;28;20024;-72
2020/12/17 08:02:20;;;;;;;26.58;15.60;;;7.40;94.00;;;;;;5062005;28;20230;-70
2020/12/17 08:04:47;;;;;;;27.83;15.57;;;7.40;94.00;;;;;;5061781;28;20028;-68
2020/12/17 08:07:13;;;;;;;22.77;14.73;;;7.30;94.10;;;;;;5062635;28;20021;-72
2020/12/17 08:09:39;;;;;;;25.20;16.00;;;7.40;93.80;;;;;;5064509;28;20086;-69
2020/12/17 08:14:33;;;;;;;22.55;14.95;;;7.40;94.10;;;;;;5001786;28;20037;-65
2020/12/17 08:17:08;;;;;;;23.70;14.85;;;7.30;94.40;;;;;;4997188;28;20047;-64
2020/12/17 08:19:34;;;;;;;24.48;15.35;;;7.50;94.00;;;;;;5006265;28;20111;-63
2020/12/17 08:22:01;;;;;;;24.40;14.98;;;7.50;93.70;;;;;;5006161;28;20442;-64
2020/12/17 08:24:32;;;;;;;29.30;16.30;;;7.50;93.80;;;;;;5018650;28;20041;-65
2020/12/17 08:26:58;;;;;;;22.70;14.68;;;7.50;94.00;;;;;;4990419;28;20098;-65
2020/12/17 08:29:24;;;;;;;24.33;14.63;;;7.50;94.00;;;;;;5013738;28;20030;-65
2020/12/17 08:31:51;;;;;;;22.85;14.00;;;7.50;94.10;;;;;;5006544;28;20030;-65
2020/12/17 08:34:17;;;;;;;19.98;13.60;;;7.50;93.90;;;;;;5016376;28;20164;-64
2020/12/17 08:36:43;;;;;;;24.13;15.18;;;7.60;93.80;;;;;;5012108;28;20083;-64
2020/12/17 08:39:14;;;;;;;20.90;13.40;;;7.60;93.70;;;;;;5013382;28;20112;-63
2020/12/17 08:41:46;;;;;;;21.95;13.43;;;7.70;93.60;;;;;;5011352;28;20088;-64
2020/12/17 08:44:14;;;;;;;22.23;13.30;;;7.70;93.40;;;;;;5015558;28;20032;-64
2020/12/17 08:46:49;;;;;;;20.35;13.00;;;7.80;93.10;;;;;;5010993;28;20108;-64
2020/12/17 08:49:15;;;;;;;19.95;13.20;;;7.80;93.30;;;;;;5010824;28;20042;-64
2020/12/17 08:51:46;;;;;;;22.77;13.35;;;7.80;93.40;;;;;;5006711;28;20044;-65
2020/12/17 08:54:33;;;;;;;19.05;13.00;;;7.90;93.20;;;;;;5009947;28;20037;-63
2020/12/17 08:57:05;;;;;;;19.25;12.05;;;8.00;93.00;;;;;;5005126;28;20192;-64
2020/12/17 08:59:30;;;;;;;19.35;12.55;;;8.10;92.70;;;;;;5006393;28;20501;-65
2020/12/17 09:01:57;;;;;;;22.88;13.48;;;8.10;93.10;;;;;;5010117;28;20042;-63
2020/12/17 09:04:23;;;;;;;20.83;13.23;;;8.10;92.60;;;;;;5012949;28;20025;-64
2020/12/17 09:07:00;;;;;;;23.15;13.45;;;8.20;92.70;;;;;;4985427;28;20060;-64
2020/12/17 09:09:28;;;;;;;22.50;12.75;;;8.10;93.30;;;;;;5009542;28;20057;-68
2020/12/17 09:11:55;;;;;;;21.85;12.93;;;8.10;93.30;;;;;;5001977;28;20034;-69
2020/12/17 09:14:29;;;;;;;24.02;13.95;;;8.20;93.30;;;;;;5011697;28;20479;-70
2020/12/17 09:17:05;;;;;;;23.15;14.07;;;8.20;93.50;;;;;;5002573;28;20127;-68
2020/12/17 09:19:32;;;;;;;22.23;12.85;;;8.20;93.60;;;;;;5008274;28;21728;-69
2020/12/17 09:22:00;;;;;;;22.00;13.80;;;8.20;93.50;;;;;;5008414;28;20368;-69
2020/12/17 09:24:33;;;;;;;21.10;13.82;;;8.30;93.20;;;;;;5015816;28;20037;-69
2020/12/17 09:27:26;;;;;;;21.48;13.18;;;8.30;93.40;;;;;;4988554;28;20174;-69
2020/12/17 09:30:05;;;;;;;24.63;13.30;;;8.30;93.40;;;;;;5012405;28;20106;-68
2020/12/17 09:32:31;;;;;;;20.15;13.23;;;8.30;93.00;;;;;;5007310;28;20034;-69
2020/12/17 09:35:09;;;;;;;20.33;13.18;;;8.30;93.20;;;;;;5013672;28;20407;-68
2020/12/17 09:37:36;;;;;;;20.33;13.13;;;8.40;92.80;;;;;;5011854;28;20175;-67
2020/12/17 09:40:05;;;;;;;22.02;13.82;;;8.40;93.40;;;;;;5004808;28;20018;-69
2020/12/17 09:42:30;;;;;;;19.63;13.93;;;8.40;93.00;;;;;;5005936;28;20018;-69
2020/12/17 09:44:56;;;;;;;22.15;13.20;;;8.40;93.50;;;;;;5012463;28;20091;-69
2020/12/17 09:47:33;;;;;;;22.63;14.52;;;8.30;94.00;;;;;;5009484;28;20038;-67
2020/12/17 09:50:09;;;;;;;23.17;14.43;;;8.30;94.20;;;;;;5016117;28;20029;-67
2020/12/17 09:52:35;;;;;;;20.23;13.95;;;8.30;94.60;;;;;;5006671;28;20095;-67
2020/12/17 09:55:01;;;;;;;26.80;15.23;;;8.40;94.00;;;;;;5016008;28;20025;-68
2020/12/17 09:57:43;;;;;;;24.63;14.82;;;8.40;94.20;;;;;;5003291;28;20034;-63
2020/12/17 10:00:13;;;;;;;25.30;15.00;;;8.30;94.50;;;;;;5008275;28;20127;-65
2020/12/17 10:02:40;;;;;;;28.10;15.98;;;8.30;94.40;;;;;;5012691;28;20102;-66
2020/12/17 10:05:09;;;;;;;26.85;15.75;;;8.20;94.90;;;;;;5014014;28;20026;-64
2020/12/17 10:07:34;;;;;;;25.15;15.30;;;8.20;95.00;;;;;;5004946;28;20032;-64
2020/12/17 10:10:01;;;;;;;25.38;15.55;;;8.20;95.10;;;;;;5010458;28;20017;-64
2020/12/17 10:12:26;;;;;;;24.05;15.10;;;8.20;95.10;;;;;;5012887;28;20593;-63
2020/12/17 10:14:52;;;;;;;25.02;15.73;;;8.20;95.10;;;;;;5004691;28;20078;-63
2020/12/17 10:17:18;;;;;;;26.20;15.52;;;8.20;95.50;;;;;;4998299;28;20037;-65
2020/12/17 10:19:43;;;;;;;25.35;15.65;;;8.20;95.40;;;;;;5013774;28;20519;-64
2020/12/17 10:22:09;;;;;;;24.83;15.63;;;8.20;95.60;;;;;;5006149;28;20204;-65
2020/12/17 10:24:35;;;;;;;25.33;16.45;;;8.20;95.80;;;;;;4997684;28;20025;-64
2020/12/17 10:27:01;;;;;;;27.88;16.38;;;8.10;95.80;;;;;;5002483;28;20015;-64
2020/12/17 10:29:28;;;;;;;27.63;17.35;;;8.10;95.90;;;;;;5013625;28;20400;-64
2020/12/17 10:31:55;;;;;;;28.67;17.02;;;8.10;96.20;;;;;;5000459;28;20066;-64
2020/12/17 10:34:21;;;;;;;31.60;17.33;;;8.10;96.30;;;;;;5009433;28;20033;-64
2020/12/17 10:36:47;;;;;;;30.20;18.00;;;8.10;96.30;;;;;;5007685;28;20801;-65
2020/12/17 10:39:13;;;;;;;28.98;17.08;;;8.10;96.30;;;;;;5012955;28;20113;-66
2020/12/17 10:41:40;;;;;;;28.90;17.92;;;8.10;96.40;;;;;;5010092;28;20017;-65
2020/12/17 10:44:06;;;;;;;27.90;17.85;;;8.10;96.40;;;;;;5007090;28;20433;-65
2020/12/17 10:46:32;;;;;;;31.73;17.58;;;8.20;96.40;;;;;;5013951;28;20478;-65
2020/12/17 10:48:59;;;;;;;27.02;17.35;;;8.20;96.50;;;;;;5017445;28;20071;-65
2020/12/17 10:51:28;;;;;;;28.65;17.85;;;8.20;96.50;;;;;;5015820;28;20143;-65
2020/12/17 10:53:53;;;;;;;28.95;18.30;;;8.20;96.50;;;;;;5016117;28;20049;-65
2020/12/17 10:56:19;;;;;;;31.48;18.05;;;8.20;96.50;;;;;;5021012;28;20072;-65
2020/12/17 10:58:47;;;;;;;31.73;19.80;;;8.20;96.60;;;;;;5013238;28;20068;-64
2020/12/17 11:01:13;;;;;;;27.35;17.90;;;8.20;96.70;;;;;;5020052;28;20293;-65
2020/12/17 11:03:38;;;;;;;30.88;18.15;;;8.20;96.80;;;;;;5007988;28;20044;-65
2020/12/17 11:06:04;;;;;;;31.75;19.15;;;8.20;96.80;;;;;;5004353;28;20060;-66
2020/12/17 11:08:30;;;;;;;36.50;19.90;;;8.20;96.80;;;;;;5015541;28;20242;-65
2020/12/17 11:10:55;;;;;;;30.48;19.83;;;8.20;97.00;;;;;;5019361;28;20099;-65
2020/12/17 11:13:21;;;;;;;30.88;19.35;;;8.10;97.10;;;;;;5003301;28;20144;-67
2020/12/17 11:15:51;;;;;;;33.10;18.75;;;8.20;97.10;;;;;;4990828;28;21957;-67
2020/12/17 11:18:17;;;;;;;31.13;19.48;;;8.20;97.10;;;;;;5010241;28;20091;-67
2020/12/17 11:20:44;;;;;;;35.67;19.63;;;8.20;97.10;;;;;;5019370;28;20025;-68
2020/12/17 11:23:10;;;;;;;29.58;18.00;;;8.20;97.20;;;;;;5018279;28;20167;-67
2020/12/17 11:25:36;;;;;;;32.17;20.10;;;8.30;97.20;;;;;;5016370;28;20024;-66
2020/12/17 11:28:08;;;;;;;30.50;19.02;;;8.30;97.10;;;;;;5008298;28;20104;-67
2020/12/17 11:30:34;;;;;;;;;;;8.30;97.10;;;;;;5014069;28;20084;-64
2020/12/17 11:33:00;;;;;;;26.23;17.60;;;8.30;97.10;;;;;;5018922;28;20118;-65
2020/12/17 11:35:25;;;;;;;31.77;19.50;;;8.40;97.10;;;;;;5017755;28;20101;-65
2020/12/17 11:37:51;;;;;;;30.15;18.63;;;8.40;97.20;;;;;;5009524;28;20052;-65
2020/12/17 11:40:21;;;;;;;27.35;17.52;;;8.40;97.10;;;;;;5019668;28;20069;-63
2020/12/17 11:42:46;;;;;;;27.85;16.83;;;8.50;96.90;;;;;;5017913;28;20018;-65
2020/12/17 11:45:12;;;;;;;26.10;16.77;;;8.50;96.90;;;;;;5021116;28;20026;-66
2020/12/17 11:47:38;;;;;;;28.70;16.95;;;8.50;96.90;;;;;;4997093;28;20048;-66
2020/12/17 11:50:08;;;;;;;26.17;17.30;;;8.60;97.00;;;;;;4998620;28;22170;-65
2020/12/17 11:52:35;;;;;;;26.33;17.77;;;8.60;97.00;;;;;;5017094;28;20044;-64
2020/12/17 11:55:07;;;;;;;27.75;16.85;;;8.60;97.00;;;;;;5016778;28;21346;-65
2020/12/17 11:57:34;;;;;;;24.05;16.63;;;8.60;97.00;;;;;;5005961;28;20045;-64
2020/12/17 12:00:00;;;;;;;23.98;15.70;;;8.70;96.80;;;;;;5020192;28;20017;-65
2020/12/17 12:02:25;;;;;;;23.48;16.10;;;8.80;96.60;;;;;;5020182;28;20547;-65
2020/12/17 12:04:51;;;;;;;19.70;13.25;;;8.80;96.50;;;;;;5023174;28;20030;-65
2020/12/17 12:07:17;;;;;;;19.90;14.07;;;8.80;96.30;;;;;;5012913;28;20041;-64
2020/12/17 12:09:42;;;;;;;19.02;14.05;;;8.80;96.50;;;;;;5015571;28;20029;-64
2020/12/17 12:12:08;;;;;;;20.55;13.68;;;8.90;96.50;;;;;;5005255;28;20248;-64
2020/12/17 12:14:34;;;;;;;15.98;12.20;;;8.90;96.30;;;;;;5005975;28;20117;-66
2020/12/17 12:17:00;;;;;;;18.35;13.07;;;9.00;96.10;;;;;;5015877;28;20037;-66
2020/12/17 12:19:25;;;;;;;22.30;12.50;;;9.00;96.20;;;;;;5012047;28;20034;-64
2020/12/17 12:21:53;;;;;;;15.30;11.00;;;9.00;96.20;;;;;;5016652;28;20026;-66
2020/12/17 12:24:19;;;;;;;14.57;9.85;;;9.00;95.80;;;;;;5015223;28;21744;-66
2020/12/17 12:26:46;;;;;;;15.48;9.88;;;9.10;95.30;;;;;;5022172;28;20635;-66
2020/12/17 12:29:11;;;;;;;14.02;10.43;;;9.10;95.10;;;;;;5023697;28;20040;-65
2020/12/17 12:31:37;;;;;;;14.60;9.27;;;9.10;95.40;;;;;;5026476;28;20026;-66
2020/12/17 12:34:03;;;;;;;11.48;9.07;;;9.10;95.20;;;;;;5021437;28;20650;-65
2020/12/17 12:36:29;;;;;;;13.05;8.95;;;9.10;95.40;;;;;;5022990;28;20052;-65
2020/12/17 12:38:55;;;;;;;11.15;8.50;;;9.10;95.60;;;;;;5028116;28;20064;-65
2020/12/17 12:41:21;;;;;;;12.60;8.98;;;9.10;95.40;;;;;;5026891;28;20514;-65
2020/12/17 12:43:47;;;;;;;13.07;9.20;;;9.10;95.40;;;;;;5015586;28;20044;-64
2020/12/17 12:46:17;;;;;;;11.75;8.40;;;9.20;95.40;;;;;;5023692;28;20026;-64